Raisin, California
Current Conditions -  °F | °C
As of 7:18 PM on Saturday 24 Jan 2015 (Local Time) from KFAT Reporting Station
Haze Haze  
Wind Chill: 40°   Ceiling: 200
Heat Index: 43°   Visibility: 0.75mi
Dew Point: 43°   Wind: 5mph
Humidity: 100%   Direction: 150°SSE
Pressure: 30.19"   Gusts: NA
Location:  36.6°N, 119.9°W
Report Text: KFAT 250318Z 15004KT 3/4SM R29R/P6000FT BR BKN002 OVC004 06/06 A3019 RMK AO2 SFC VIS 1 TOVC 013 T00610061
Loading
Personal Weather Stations






























Interactive Weather Map New forecast layout! Learn more

10-Day Weather Forecast

Advertisements
Track Severe Weather on mobile